sensor_id;sensor_type;location;lat;lon;timestamp;pressure;altitude;pressure_sealevel;temperature;humidity
39455;BME280;25155;41.890;23.446;2023-11-21T00:02:27;91757.75;;;4.48;57.88
39455;BME280;25155;41.890;23.446;2023-11-21T00:04:55;91757.44;;;4.44;58.05
39455;BME280;25155;41.890;23.446;2023-11-21T00:07:22;91756.09;;;4.41;59.17
39455;BME280;25155;41.890;23.446;2023-11-21T00:09:49;91760.28;;;4.31;58.89
39455;BME280;25155;41.890;23.446;2023-11-21T00:12:16;91770.28;;;4.27;58.95
39455;BME280;25155;41.890;23.446;2023-11-21T00:14:44;91774.88;;;4.25;58.59
39455;BME280;25155;41.890;23.446;2023-11-21T00:17:12;91775.91;;;4.24;58.82
39455;BME280;25155;41.890;23.446;2023-11-21T00:19:40;91769.38;;;4.21;58.46
39455;BME280;25155;41.890;23.446;2023-11-21T00:22:10;91766.47;;;4.18;58.02
39455;BME280;25155;41.890;23.446;2023-11-21T00:24:37;91771.63;;;4.18;58.39
39455;BME280;25155;41.890;23.446;2023-11-21T00:27:04;91778.38;;;4.19;57.95
39455;BME280;25155;41.890;23.446;2023-11-21T00:29:31;91782.41;;;4.15;57.97
39455;BME280;25155;41.890;23.446;2023-11-21T00:31:58;91773.34;;;4.12;58.21
39455;BME280;25155;41.890;23.446;2023-11-21T00:34:26;91776.91;;;4.11;58.39
39455;BME280;25155;41.890;23.446;2023-11-21T00:36:53;91769.41;;;4.10;58.12
39455;BME280;25155;41.890;23.446;2023-11-21T00:39:22;91769.06;;;4.06;57.92
39455;BME280;25155;41.890;23.446;2023-11-21T00:41:49;91764.81;;;4.00;58.11
39455;BME280;25155;41.890;23.446;2023-11-21T00:44:16;91770.53;;;4.02;57.78
39455;BME280;25155;41.890;23.446;2023-11-21T00:46:43;91765.59;;;4.00;57.82
39455;BME280;25155;41.890;23.446;2023-11-21T00:49:10;91767.38;;;4.00;57.77
39455;BME280;25155;41.890;23.446;2023-11-21T00:51:38;91760.53;;;3.94;57.96
39455;BME280;25155;41.890;23.446;2023-11-21T00:54:06;91763.47;;;3.97;58.08
39455;BME280;25155;41.890;23.446;2023-11-21T00:56:35;91762.13;;;3.95;57.84
39455;BME280;25155;41.890;23.446;2023-11-21T00:59:03;91769.66;;;3.96;58.27
39455;BME280;25155;41.890;23.446;2023-11-21T01:01:30;91768.88;;;3.96;57.96
39455;BME280;25155;41.890;23.446;2023-11-21T01:03:58;91763.94;;;3.94;57.81
39455;BME280;25155;41.890;23.446;2023-11-21T01:06:25;91763.03;;;3.88;58.36
39455;BME280;25155;41.890;23.446;2023-11-21T01:08:52;91762.47;;;3.86;58.54
39455;BME280;25155;41.890;23.446;2023-11-21T01:11:20;91771.44;;;3.84;58.83
39455;BME280;25155;41.890;23.446;2023-11-21T01:13:49;91770.56;;;3.78;58.61
39455;BME280;25155;41.890;23.446;2023-11-21T01:16:16;91771.22;;;3.74;59.15
39455;BME280;25155;41.890;23.446;2023-11-21T01:18:43;91778.50;;;3.65;59.44
39455;BME280;25155;41.890;23.446;2023-11-21T01:21:11;91773.25;;;3.60;59.52
39455;BME280;25155;41.890;23.446;2023-11-21T01:23:38;91780.44;;;3.58;59.47
39455;BME280;25155;41.890;23.446;2023-11-21T01:26:05;91776.03;;;3.58;59.33
39455;BME280;25155;41.890;23.446;2023-11-21T01:28:34;91773.69;;;3.57;59.44
39455;BME280;25155;41.890;23.446;2023-11-21T01:31:02;91768.75;;;3.55;59.37
39455;BME280;25155;41.890;23.446;2023-11-21T01:33:29;91770.13;;;3.58;58.87
39455;BME280;25155;41.890;23.446;2023-11-21T01:35:57;91765.19;;;3.56;58.88
39455;BME280;25155;41.890;23.446;2023-11-21T01:38:24;91762.81;;;3.55;58.97
39455;BME280;25155;41.890;23.446;2023-11-21T01:40:51;91765.41;;;3.55;59.19
39455;BME280;25155;41.890;23.446;2023-11-21T01:43:18;91761.25;;;3.54;58.77
39455;BME280;25155;41.890;23.446;2023-11-21T01:45:45;91763.25;;;3.51;59.13
39455;BME280;25155;41.890;23.446;2023-11-21T01:48:14;91768.41;;;3.51;58.89
39455;BME280;25155;41.890;23.446;2023-11-21T01:50:42;91768.41;;;3.51;59.03
39455;BME280;25155;41.890;23.446;2023-11-21T01:53:12;91762.72;;;3.49;58.52
39455;BME280;25155;41.890;23.446;2023-11-21T01:55:41;91763.69;;;3.48;58.72
39455;BME280;25155;41.890;23.446;2023-11-21T01:58:10;91759.00;;;3.45;58.83
39455;BME280;25155;41.890;23.446;2023-11-21T02:00:40;91755.41;;;3.46;58.62
39455;BME280;25155;41.890;23.446;2023-11-21T02:03:07;91755.41;;;3.46;58.95
39455;BME280;25155;41.890;23.446;2023-11-21T02:05:37;91739.72;;;3.36;58.48
39455;BME280;25155;41.890;23.446;2023-11-21T02:08:05;91746.00;;;3.40;59.54
39455;BME280;25155;41.890;23.446;2023-11-21T02:10:35;91742.16;;;3.31;60.06
39455;BME280;25155;41.890;23.446;2023-11-21T02:13:03;91751.91;;;3.29;59.63
39455;BME280;25155;41.890;23.446;2023-11-21T02:15:32;91746.97;;;3.27;59.59
39455;BME280;25155;41.890;23.446;2023-11-21T02:17:59;91747.78;;;3.28;59.64
39455;BME280;25155;41.890;23.446;2023-11-21T02:20:29;91736.44;;;3.29;59.80
39455;BME280;25155;41.890;23.446;2023-11-21T02:22:58;91740.03;;;3.28;59.71
39455;BME280;25155;41.890;23.446;2023-11-21T02:25:26;91732.09;;;3.29;59.55
39455;BME280;25155;41.890;23.446;2023-11-21T02:27:54;91739.81;;;3.29;59.62
39455;BME280;25155;41.890;23.446;2023-11-21T02:30:21;91741.59;;;3.29;59.41
39455;BME280;25155;41.890;23.446;2023-11-21T02:32:50;91749.34;;;3.29;59.76
39455;BME280;25155;41.890;23.446;2023-11-21T02:35:18;91741.03;;;3.27;59.30
39455;BME280;25155;41.890;23.446;2023-11-21T02:37:46;91744.63;;;3.26;59.53
39455;BME280;25155;41.890;23.446;2023-11-21T02:40:16;91737.91;;;3.25;59.26
39455;BME280;25155;41.890;23.446;2023-11-21T02:42:46;91740.50;;;3.25;59.16
39455;BME280;25155;41.890;23.446;2023-11-21T02:45:15;91743.72;;;3.20;59.64
39455;BME280;25155;41.890;23.446;2023-11-21T02:47:43;91742.38;;;3.18;59.63
39455;BME280;25155;41.890;23.446;2023-11-21T02:50:11;91744.38;;;3.16;59.63
39455;BME280;25155;41.890;23.446;2023-11-21T02:52:38;91738.91;;;3.12;59.90
39455;BME280;25155;41.890;23.446;2023-11-21T02:55:07;91743.72;;;3.08;60.07
39455;BME280;25155;41.890;23.446;2023-11-21T02:57:36;91754.34;;;3.00;60.82
39455;BME280;25155;41.890;23.446;2023-11-21T03:00:04;91741.13;;;2.97;60.57
39455;BME280;25155;41.890;23.446;2023-11-21T03:02:33;91743.47;;;2.98;60.51
39455;BME280;25155;41.890;23.446;2023-11-21T03:05:05;91743.91;;;2.95;60.47
39455;BME280;25155;41.890;23.446;2023-11-21T03:07:32;91746.81;;;2.99;60.21
39455;BME280;25155;41.890;23.446;2023-11-21T03:10:00;91744.25;;;2.99;59.79
39455;BME280;25155;41.890;23.446;2023-11-21T03:12:27;91742.44;;;2.99;60.05
39455;BME280;25155;41.890;23.446;2023-11-21T03:14:55;91747.03;;;2.97;59.83
39455;BME280;25155;41.890;23.446;2023-11-21T03:17:23;91743.47;;;2.98;59.64
39455;BME280;25155;41.890;23.446;2023-11-21T03:19:50;91742.66;;;2.98;59.64
39455;BME280;25155;41.890;23.446;2023-11-21T03:22:18;91744.47;;;2.97;59.88
39455;BME280;25155;41.890;23.446;2023-11-21T03:24:46;91750.06;;;2.94;59.64
39455;BME280;25155;41.890;23.446;2023-11-21T03:27:13;91741.22;;;2.90;59.49
39455;BME280;25155;41.890;23.446;2023-11-21T03:29:40;91740.19;;;2.91;59.56
39455;BME280;25155;41.890;23.446;2023-11-21T03:32:08;91745.22;;;2.86;59.64
39455;BME280;25155;41.890;23.446;2023-11-21T03:34:53;91742.97;;;2.77;60.39
39455;BME280;25155;41.890;23.446;2023-11-21T03:37:21;91741.41;;;2.76;60.70
39455;BME280;25155;41.890;23.446;2023-11-21T03:39:49;91739.81;;;2.75;60.43
39455;BME280;25155;41.890;23.446;2023-11-21T03:42:16;91735.88;;;2.73;60.42
39455;BME280;25155;41.890;23.446;2023-11-21T03:44:43;91739.25;;;2.73;60.18
39455;BME280;25155;41.890;23.446;2023-11-21T03:47:12;91739.47;;;2.72;60.32
39455;BME280;25155;41.890;23.446;2023-11-21T03:49:39;91735.09;;;2.72;60.35
39455;BME280;25155;41.890;23.446;2023-11-21T03:52:07;91744.84;;;2.70;60.10
39455;BME280;25155;41.890;23.446;2023-11-21T03:54:34;91744.84;;;2.70;60.25
39455;BME280;25155;41.890;23.446;2023-11-21T03:57:02;91738.66;;;2.71;60.36
39455;BME280;25155;41.890;23.446;2023-11-21T03:59:30;91746.66;;;2.70;60.19
39455;BME280;25155;41.890;23.446;2023-11-21T04:01:57;91747.63;;;2.69;59.97
39455;BME280;25155;41.890;23.446;2023-11-21T04:04:26;91745.84;;;2.69;59.82
39455;BME280;25155;41.890;23.446;2023-11-21T04:06:53;91739.13;;;2.68;60.16
39455;BME280;25155;41.890;23.446;2023-11-21T04:09:20;91741.94;;;2.67;60.31
39455;BME280;25155;41.890;23.446;2023-11-21T04:11:51;91744.72;;;2.65;60.28
39455;BME280;25155;41.890;23.446;2023-11-21T04:14:18;91746.75;;;2.63;60.49
39455;BME280;25155;41.890;23.446;2023-11-21T04:16:45;91739.22;;;2.62;60.08
39455;BME280;25155;41.890;23.446;2023-11-21T04:19:13;91737.09;;;2.58;60.56
39455;BME280;25155;41.890;23.446;2023-11-21T04:21:42;91739.88;;;2.57;60.43
39455;BME280;25155;41.890;23.446;2023-11-21T04:24:10;91724.19;;;2.47;60.73
39455;BME280;25155;41.890;23.446;2023-11-21T04:26:37;91741.72;;;2.50;60.92
39455;BME280;25155;41.890;23.446;2023-11-21T04:29:04;91736.59;;;2.50;61.06
39455;BME280;25155;41.890;23.446;2023-11-21T04:31:31;91745.34;;;2.49;61.05
39455;BME280;25155;41.890;23.446;2023-11-21T04:33:59;91740.19;;;2.49;60.59
39455;BME280;25155;41.890;23.446;2023-11-21T04:36:26;91751.25;;;2.49;60.86
39455;BME280;25155;41.890;23.446;2023-11-21T04:38:57;91738.59;;;2.48;60.88
39455;BME280;25155;41.890;23.446;2023-11-21T04:41:25;91743.53;;;2.49;60.38
39455;BME280;25155;41.890;23.446;2023-11-21T04:43:52;91738.38;;;2.49;60.36
39455;BME280;25155;41.890;23.446;2023-11-21T04:46:19;91739.97;;;2.50;60.55
39455;BME280;25155;41.890;23.446;2023-11-21T04:48:47;91736.59;;;2.50;60.23
39455;BME280;25155;41.890;23.446;2023-11-21T04:51:14;91730.44;;;2.51;60.29
39455;BME280;25155;41.890;23.446;2023-11-21T04:53:42;91727.88;;;2.51;60.66
39455;BME280;25155;41.890;23.446;2023-11-21T04:56:10;91724.72;;;2.49;60.68
39455;BME280;25155;41.890;23.446;2023-11-21T04:58:38;91722.59;;;2.46;60.59
39455;BME280;25155;41.890;23.446;2023-11-21T05:01:07;91735.47;;;2.46;60.25
39455;BME280;25155;41.890;23.446;2023-11-21T05:03:35;91733.75;;;2.39;60.34
39455;BME280;25155;41.890;23.446;2023-11-21T05:06:05;91739.47;;;2.42;60.31
39455;BME280;25155;41.890;23.446;2023-11-21T05:08:32;91738.69;;;2.41;60.70
39455;BME280;25155;41.890;23.446;2023-11-21T05:10:59;91743.06;;;2.40;60.31
39455;BME280;25155;41.890;23.446;2023-11-21T05:13:27;91741.69;;;2.38;60.59
39455;BME280;25155;41.890;23.446;2023-11-21T05:15:55;91742.72;;;2.37;60.50
39455;BME280;25155;41.890;23.446;2023-11-21T05:18:22;91748.63;;;2.37;60.47
39455;BME280;25155;41.890;23.446;2023-11-21T05:20:52;91746.13;;;2.31;60.48
39455;BME280;25155;41.890;23.446;2023-11-21T05:23:20;91751.63;;;2.34;60.36
39455;BME280;25155;41.890;23.446;2023-11-21T05:25:48;91752.63;;;2.33;60.72
39455;BME280;25155;41.890;23.446;2023-11-21T05:28:15;91752.63;;;2.33;60.65
39455;BME280;25155;41.890;23.446;2023-11-21T05:30:44;91761.38;;;2.32;60.32
39455;BME280;25155;41.890;23.446;2023-11-21T05:33:11;91760.94;;;2.35;60.46
39455;BME280;25155;41.890;23.446;2023-11-21T05:35:38;91754.03;;;2.48;60.96
39455;BME280;25155;41.890;23.446;2023-11-21T05:38:06;91761.28;;;2.69;60.57
39455;BME280;25155;41.890;23.446;2023-11-21T05:40:34;91759.50;;;3.00;60.81
39455;BME280;25155;41.890;23.446;2023-11-21T05:43:02;91755.03;;;3.31;60.46
39455;BME280;25155;41.890;23.446;2023-11-21T05:45:31;91732.97;;;3.35;59.52
39455;BME280;25155;41.890;23.446;2023-11-21T05:47:59;91754.53;;;3.53;59.13
39455;BME280;25155;41.890;23.446;2023-11-21T05:50:26;91751.38;;;3.62;59.43
39455;BME280;25155;41.890;23.446;2023-11-21T05:52:53;91754.41;;;3.71;59.21
39455;BME280;25155;41.890;23.446;2023-11-21T05:55:22;91762.94;;;3.72;58.98
39455;BME280;25155;41.890;23.446;2023-11-21T05:57:51;91765.06;;;3.63;58.98
39455;BME280;25155;41.890;23.446;2023-11-21T06:00:19;91752.41;;;3.49;59.05
39455;BME280;25155;41.890;23.446;2023-11-21T06:02:47;91758.66;;;3.42;59.16
39455;BME280;25155;41.890;23.446;2023-11-21T06:05:18;91759.19;;;3.32;58.68
39455;BME280;25155;41.890;23.446;2023-11-21T06:07:45;91761.09;;;3.25;59.47
39455;BME280;25155;41.890;23.446;2023-11-21T06:10:13;91762.66;;;3.14;59.74
39455;BME280;25155;41.890;23.446;2023-11-21T06:12:40;91761.41;;;3.05;59.57
39455;BME280;25155;41.890;23.446;2023-11-21T06:15:09;91762.50;;;2.97;60.45
39455;BME280;25155;41.890;23.446;2023-11-21T06:17:39;91768.53;;;2.91;60.31
39455;BME280;25155;41.890;23.446;2023-11-21T06:20:08;91759.47;;;2.88;60.32
39455;BME280;25155;41.890;23.446;2023-11-21T06:22:39;91759.69;;;2.87;59.99
39455;BME280;25155;41.890;23.446;2023-11-21T06:25:08;91760.69;;;2.86;60.01
39455;BME280;25155;41.890;23.446;2023-11-21T06:27:38;91762.69;;;2.84;60.48
39455;BME280;25155;41.890;23.446;2023-11-21T06:30:07;91765.69;;;2.81;60.54
39455;BME280;25155;41.890;23.446;2023-11-21T06:32:35;91770.38;;;2.72;61.13
39455;BME280;25155;41.890;23.446;2023-11-21T06:35:03;91764.75;;;2.63;61.72
39455;BME280;25155;41.890;23.446;2023-11-21T06:37:31;91767.38;;;2.56;62.07
39455;BME280;25155;41.890;23.446;2023-11-21T06:40:01;91768.41;;;2.55;62.03
39455;BME280;25155;41.890;23.446;2023-11-21T06:42:29;91777.25;;;2.59;62.01
39455;BME280;25155;41.890;23.446;2023-11-21T06:44:58;91774.03;;;2.64;61.51
39455;BME280;25155;41.890;23.446;2023-11-21T06:47:26;91776.19;;;2.67;61.44
39455;BME280;25155;41.890;23.446;2023-11-21T06:49:55;91766.00;;;2.72;61.57
39455;BME280;25155;41.890;23.446;2023-11-21T06:52:22;91773.09;;;2.77;61.68
39455;BME280;25155;41.890;23.446;2023-11-21T06:54:50;91774.22;;;2.81;61.36
39455;BME280;25155;41.890;23.446;2023-11-21T06:57:19;91774.00;;;2.83;61.57
39455;BME280;25155;41.890;23.446;2023-11-21T06:59:46;91766.38;;;2.88;61.75
39455;BME280;25155;41.890;23.446;2023-11-21T07:02:14;91767.75;;;2.90;61.67
39455;BME280;25155;41.890;23.446;2023-11-21T07:04:43;91768.53;;;2.91;61.27
39455;BME280;25155;41.890;23.446;2023-11-21T07:07:11;91773.81;;;2.96;61.75
39455;BME280;25155;41.890;23.446;2023-11-21T07:09:38;91765.84;;;2.98;61.37
39455;BME280;25155;41.890;23.446;2023-11-21T07:12:05;91769.56;;;3.02;61.27
39455;BME280;25155;41.890;23.446;2023-11-21T07:14:34;91768.78;;;3.01;61.91
39455;BME280;25155;41.890;23.446;2023-11-21T07:17:02;91759.72;;;2.99;61.57
39455;BME280;25155;41.890;23.446;2023-11-21T07:19:30;91765.75;;;3.04;62.06
39455;BME280;25155;41.890;23.446;2023-11-21T07:21:57;91765.88;;;3.09;61.92
39455;BME280;25155;41.890;23.446;2023-11-21T07:24:24;91759.63;;;3.17;62.06
39455;BME280;25155;41.890;23.446;2023-11-21T07:26:51;91758.66;;;3.30;61.88
39455;BME280;25155;41.890;23.446;2023-11-21T07:29:23;91742.75;;;3.33;62.07
39455;BME280;25155;41.890;23.446;2023-11-21T07:31:53;91760.47;;;3.53;62.34
39455;BME280;25155;41.890;23.446;2023-11-21T07:34:21;91765.72;;;3.70;62.40
39455;BME280;25155;41.890;23.446;2023-11-21T07:36:48;91761.91;;;3.84;62.56
39455;BME280;25155;41.890;23.446;2023-11-21T07:39:16;91761.69;;;3.98;62.63
39455;BME280;25155;41.890;23.446;2023-11-21T07:41:43;91767.81;;;4.09;62.84
39455;BME280;25155;41.890;23.446;2023-11-21T07:44:15;91760.84;;;4.21;63.03
39455;BME280;25155;41.890;23.446;2023-11-21T07:46:43;91766.09;;;4.38;63.11
39455;BME280;25155;41.890;23.446;2023-11-21T07:49:11;91754.41;;;4.47;63.08
39455;BME280;25155;41.890;23.446;2023-11-21T07:51:41;91772.06;;;4.67;63.06
39455;BME280;25155;41.890;23.446;2023-11-21T07:54:09;91768.91;;;4.77;63.13
39455;BME280;25155;41.890;23.446;2023-11-21T07:56:37;91761.88;;;4.89;62.79
39455;BME280;25155;41.890;23.446;2023-11-21T07:59:04;91756.88;;;4.99;63.10
39455;BME280;25155;41.890;23.446;2023-11-21T08:01:31;91768.88;;;5.06;63.21
39455;BME280;25155;41.890;23.446;2023-11-21T08:03:58;91765.06;;;5.08;63.10
39455;BME280;25155;41.890;23.446;2023-11-21T08:06:30;91771.31;;;5.12;62.87
39455;BME280;25155;41.890;23.446;2023-11-21T08:08:58;91769.03;;;5.16;62.53
39455;BME280;25155;41.890;23.446;2023-11-21T08:11:26;91779.00;;;5.24;62.42
39455;BME280;25155;41.890;23.446;2023-11-21T08:13:54;91771.69;;;5.21;63.14
39455;BME280;25155;41.890;23.446;2023-11-21T08:16:22;91769.22;;;5.26;63.13
39455;BME280;25155;41.890;23.446;2023-11-21T08:18:49;91778.38;;;5.34;62.95
39455;BME280;25155;41.890;23.446;2023-11-21T08:21:16;91772.75;;;5.37;62.89
39455;BME280;25155;41.890;23.446;2023-11-21T08:23:46;91771.00;;;5.43;63.11
39455;BME280;25155;41.890;23.446;2023-11-21T08:26:19;91768.84;;;5.51;63.23
39455;BME280;25155;41.890;23.446;2023-11-21T08:28:46;91763.03;;;5.61;63.35
39455;BME280;25155;41.890;23.446;2023-11-21T08:31:13;91766.00;;;5.70;63.59
39455;BME280;25155;41.890;23.446;2023-11-21T08:33:41;91758.38;;;5.80;63.37
39455;BME280;25155;41.890;23.446;2023-11-21T08:36:09;91766.53;;;5.89;63.11
39455;BME280;25155;41.890;23.446;2023-11-21T08:38:37;91748.97;;;5.91;62.90
39455;BME280;25155;41.890;23.446;2023-11-21T08:41:07;91764.66;;;6.01;62.88
39455;BME280;25155;41.890;23.446;2023-11-21T08:43:35;91762.13;;;6.06;63.52
39455;BME280;25155;41.890;23.446;2023-11-21T08:46:05;91754.66;;;6.10;63.24
39455;BME280;25155;41.890;23.446;2023-11-21T08:48:35;91759.13;;;6.15;63.32
39455;BME280;25155;41.890;23.446;2023-11-21T08:51:02;91750.94;;;6.23;63.39
39455;BME280;25155;41.890;23.446;2023-11-21T08:53:30;91753.38;;;6.30;64.07
39455;BME280;25155;41.890;23.446;2023-11-21T08:55:58;91752.88;;;6.33;63.79
39455;BME280;25155;41.890;23.446;2023-11-21T08:58:27;91748.78;;;6.37;63.38
39455;BME280;25155;41.890;23.446;2023-11-21T09:00:54;91741.69;;;6.49;63.64
39455;BME280;25155;41.890;23.446;2023-11-21T09:03:21;91741.03;;;6.59;63.67
39455;BME280;25155;41.890;23.446;2023-11-21T09:05:48;91730.75;;;6.69;62.99
39455;BME280;25155;41.890;23.446;2023-11-21T09:08:16;91723.31;;;6.78;63.39
39455;BME280;25155;41.890;23.446;2023-11-21T09:10:43;91724.47;;;6.87;63.24
39455;BME280;25155;41.890;23.446;2023-11-21T09:13:13;91717.53;;;6.98;63.19
39455;BME280;25155;41.890;23.446;2023-11-21T09:15:43;91711.41;;;7.09;63.14
39455;BME280;25155;41.890;23.446;2023-11-21T09:18:13;91712.06;;;7.22;63.21
39455;BME280;25155;41.890;23.446;2023-11-21T09:20:40;91719.38;;;7.30;62.63
39455;BME280;25155;41.890;23.446;2023-11-21T09:23:08;91726.91;;;7.31;61.43
39455;BME280;25155;41.890;23.446;2023-11-21T09:25:35;91715.75;;;7.31;61.28
39455;BME280;25155;41.890;23.446;2023-11-21T09:28:03;91718.38;;;7.36;61.49
39455;BME280;25155;41.890;23.446;2023-11-21T09:30:33;91709.63;;;7.42;61.77
39455;BME280;25155;41.890;23.446;2023-11-21T09:33:03;91710.38;;;7.43;61.23
39455;BME280;25155;41.890;23.446;2023-11-21T09:35:33;91704.19;;;7.44;61.14
39455;BME280;25155;41.890;23.446;2023-11-21T09:38:00;91706.00;;;7.43;61.18
39455;BME280;25155;41.890;23.446;2023-11-21T09:40:31;91702.88;;;7.46;61.15
39455;BME280;25155;41.890;23.446;2023-11-21T09:42:58;91693.59;;;7.50;60.64
39455;BME280;25155;41.890;23.446;2023-11-21T09:45:27;91689.75;;;7.58;61.08
39455;BME280;25155;41.890;23.446;2023-11-21T09:47:55;91685.38;;;7.64;60.85
39455;BME280;25155;41.890;23.446;2023-11-21T09:50:24;91682.06;;;7.79;61.08
39455;BME280;25155;41.890;23.446;2023-11-21T09:52:57;91683.94;;;7.88;60.44
39455;BME280;25155;41.890;23.446;2023-11-21T09:55:27;91670.00;;;8.00;60.62
39455;BME280;25155;41.890;23.446;2023-11-21T09:57:56;91662.75;;;8.12;60.65
39455;BME280;25155;41.890;23.446;2023-11-21T10:00:24;91655.53;;;8.24;60.49
39455;BME280;25155;41.890;23.446;2023-11-21T10:02:53;91663.38;;;8.35;60.80
39455;BME280;25155;41.890;23.446;2023-11-21T10:05:21;91660.31;;;8.48;61.07
39455;BME280;25155;41.890;23.446;2023-11-21T10:07:50;91653.56;;;8.57;60.92
39455;BME280;25155;41.890;23.446;2023-11-21T10:10:19;91643.72;;;8.64;60.32
39455;BME280;25155;41.890;23.446;2023-11-21T10:12:49;91629.94;;;8.69;60.10
39455;BME280;25155;41.890;23.446;2023-11-21T10:15:21;91622.94;;;8.75;59.94
39455;BME280;25155;41.890;23.446;2023-11-21T10:17:49;91623.44;;;8.82;59.94
39455;BME280;25155;41.890;23.446;2023-11-21T10:20:19;91616.44;;;8.88;59.61
39455;BME280;25155;41.890;23.446;2023-11-21T10:22:46;91607.88;;;8.92;58.88
39455;BME280;25155;41.890;23.446;2023-11-21T10:25:15;91609.41;;;8.93;59.26
39455;BME280;25155;41.890;23.446;2023-11-21T10:27:47;91606.03;;;8.98;59.40
39455;BME280;25155;41.890;23.446;2023-11-21T10:30:17;91602.91;;;9.01;58.95
39455;BME280;25155;41.890;23.446;2023-11-21T10:32:44;91603.16;;;9.04;58.79
39455;BME280;25155;41.890;23.446;2023-11-21T10:35:12;91595.38;;;9.04;59.31
39455;BME280;25155;41.890;23.446;2023-11-21T10:37:39;91591.47;;;9.07;59.23
39455;BME280;25155;41.890;23.446;2023-11-21T10:40:08;91602.41;;;9.09;58.89
39455;BME280;25155;41.890;23.446;2023-11-21T10:42:39;91593.53;;;9.10;59.04
39455;BME280;25155;41.890;23.446;2023-11-21T10:45:08;91591.22;;;9.14;59.26
39455;BME280;25155;41.890;23.446;2023-11-21T10:47:39;91571.94;;;9.15;59.42
39455;BME280;25155;41.890;23.446;2023-11-21T10:50:07;91578.69;;;9.21;59.23
39455;BME280;25155;41.890;23.446;2023-11-21T10:52:37;91578.19;;;9.24;59.07
39455;BME280;25155;41.890;23.446;2023-11-21T10:55:16;91577.94;;;9.20;59.07
39455;BME280;25155;41.890;23.446;2023-11-21T10:57:48;91569.31;;;9.25;58.85
39455;BME280;25155;41.890;23.446;2023-11-21T11:00:17;91569.06;;;9.32;59.04
39455;BME280;25155;41.890;23.446;2023-11-21T11:02:51;91567.75;;;9.34;59.61
39455;BME280;25155;41.890;23.446;2023-11-21T11:05:21;91570.84;;;9.41;59.72
39455;BME280;25155;41.890;23.446;2023-11-21T11:07:51;91561.22;;;9.47;59.79
39455;BME280;25155;41.890;23.446;2023-11-21T11:10:21;91571.38;;;9.49;58.73
39455;BME280;25155;41.890;23.446;2023-11-21T11:12:53;91569.78;;;9.53;59.12
39455;BME280;25155;41.890;23.446;2023-11-21T11:15:21;91567.16;;;9.58;57.67
39455;BME280;25155;41.890;23.446;2023-11-21T11:17:48;91559.09;;;9.59;57.20
39455;BME280;25155;41.890;23.446;2023-11-21T11:20:16;91559.88;;;9.60;57.00
39455;BME280;25155;41.890;23.446;2023-11-21T11:22:56;91557.03;;;9.51;56.53
39455;BME280;25155;41.890;23.446;2023-11-21T11:25:38;91559.41;;;9.42;56.37
39455;BME280;25155;41.890;23.446;2023-11-21T11:28:20;91551.13;;;9.30;56.67
39455;BME280;25155;41.890;23.446;2023-11-21T11:31:03;91555.78;;;9.33;56.91
39455;BME280;25155;41.890;23.446;2023-11-21T11:33:37;91546.94;;;9.34;57.48
39455;BME280;25155;41.890;23.446;2023-11-21T11:36:15;91546.41;;;9.37;57.51
39455;BME280;25155;41.890;23.446;2023-11-21T11:38:46;91531.81;;;9.47;57.68
39455;BME280;25155;41.890;23.446;2023-11-21T11:41:24;91538.78;;;9.56;57.42
39455;BME280;25155;41.890;23.446;2023-11-21T11:43:54;91534.84;;;9.69;57.00
39455;BME280;25155;41.890;23.446;2023-11-21T11:46:40;91535.84;;;9.78;57.48
39455;BME280;25155;41.890;23.446;2023-11-21T11:49:09;91530.06;;;9.92;57.13
39455;BME280;25155;41.890;23.446;2023-11-21T11:51:37;91527.69;;;10.01;57.38
39455;BME280;25155;41.890;23.446;2023-11-21T11:54:05;91528.72;;;10.05;56.42
39455;BME280;25155;41.890;23.446;2023-11-21T11:56:34;91527.13;;;10.09;56.56
39455;BME280;25155;41.890;23.446;2023-11-21T11:59:04;91519.00;;;10.15;56.49
39455;BME280;25155;41.890;23.446;2023-11-21T12:01:34;91521.19;;;9.93;56.87
39455;BME280;25155;41.890;23.446;2023-11-21T12:04:28;91511.97;;;10.11;56.09
39455;BME280;25155;41.890;23.446;2023-11-21T12:07:00;91505.63;;;10.27;55.88
39455;BME280;25155;41.890;23.446;2023-11-21T12:09:31;91500.13;;;10.34;55.72
39455;BME280;25155;41.890;23.446;2023-11-21T12:11:59;91517.81;;;10.42;54.85
39455;BME280;25155;41.890;23.446;2023-11-21T12:14:28;91513.41;;;10.43;54.71
39455;BME280;25155;41.890;23.446;2023-11-21T12:16:55;91508.09;;;10.53;55.21
39455;BME280;25155;41.890;23.446;2023-11-21T12:19:23;91515.88;;;10.58;54.34
39455;BME280;25155;41.890;23.446;2023-11-21T12:21:50;91502.06;;;10.58;53.81
39455;BME280;25155;41.890;23.446;2023-11-21T12:24:18;91496.28;;;10.61;54.40
39455;BME280;25155;41.890;23.446;2023-11-21T12:26:45;91502.25;;;10.66;54.81
39455;BME280;25155;41.890;23.446;2023-11-21T12:29:12;91504.59;;;10.68;54.46
39455;BME280;25155;41.890;23.446;2023-11-21T12:31:41;91504.06;;;10.71;54.08
39455;BME280;25155;41.890;23.446;2023-11-21T12:34:08;91495.13;;;10.77;54.53
39455;BME280;25155;41.890;23.446;2023-11-21T12:36:37;91487.88;;;10.74;54.32
39455;BME280;25155;41.890;23.446;2023-11-21T12:39:05;91498.75;;;10.81;54.13
39455;BME280;25155;41.890;23.446;2023-11-21T12:41:35;91497.19;;;10.80;53.21
39455;BME280;25155;41.890;23.446;2023-11-21T12:44:02;91494.06;;;10.78;53.15
39455;BME280;25155;41.890;23.446;2023-11-21T12:46:29;91485.75;;;10.76;53.26
39455;BME280;25155;41.890;23.446;2023-11-21T12:49:00;91489.41;;;10.75;53.28
39455;BME280;25155;41.890;23.446;2023-11-21T12:51:27;91491.19;;;10.80;53.54
39455;BME280;25155;41.890;23.446;2023-11-21T12:53:56;91490.38;;;10.84;54.03
39455;BME280;25155;41.890;23.446;2023-11-21T12:56:24;91484.09;;;10.85;53.64
39455;BME280;25155;41.890;23.446;2023-11-21T12:58:54;91494.53;;;10.85;53.42
39455;BME280;25155;41.890;23.446;2023-11-21T13:01:25;91495.31;;;10.86;53.93
39455;BME280;25155;41.890;23.446;2023-11-21T13:03:57;91488.53;;;10.85;53.76
39455;BME280;25155;41.890;23.446;2023-11-21T13:06:27;91482.28;;;10.86;53.98
39455;BME280;25155;41.890;23.446;2023-11-21T13:08:59;91480.75;;;10.80;53.42